Time;durP1;ratioP1;P1;durP2;ratioP2;P2;SDS_P1;SDS_P2;PMS_P1;PMS_P2;Temp;Humidity;BMP_temperature;BMP_pressure;BME280_temperature;BME280_humidity;BME280_pressure;Samples;Min_cycle;Max_cycle;Signal;HPM_P1;HPM_P2
2024/03/21 00:00:19;;;;;;;65.32;34.13;;;;;;;0.71;86.88;100931.03;1791771;79;27929;-57
2024/03/21 00:02:47;;;;;;;69.77;33.50;;;;;;;0.70;87.27;100934.75;1785826;78;25389;-57
2024/03/21 00:05:15;;;;;;;68.10;34.03;;;;;;;0.69;87.08;100930.45;1785575;79;27327;-63
2024/03/21 00:07:48;;;;;;;69.22;32.93;;;;;;;0.66;86.72;100933.04;1782850;79;25480;-60
2024/03/21 00:10:21;;;;;;;69.55;32.60;;;;;;;0.63;86.95;100934.02;1785555;79;25759;-60
2024/03/21 00:12:50;;;;;;;68.90;33.80;;;;;;;0.63;86.87;100933.52;1794466;79;26036;-57
2024/03/21 00:15:19;;;;;;;71.55;34.65;;;;;;;0.62;87.26;100935.88;1789920;79;25799;-57
2024/03/21 00:17:47;;;;;;;67.60;32.13;;;;;;;0.60;87.16;100928.64;1778254;79;27319;-55
2024/03/21 00:20:15;;;;;;;68.72;32.93;;;;;;;0.57;86.87;100927.75;1792276;79;25674;-56
2024/03/21 00:22:45;;;;;;;64.87;32.60;;;;;;;0.52;86.83;100928.42;1800827;79;25597;-57
2024/03/21 00:25:16;;;;;;;72.82;34.83;;;;;;;0.48;86.89;100931.26;1796186;79;25594;-58
2024/03/21 00:27:45;;;;;;;72.92;35.05;;;;;;;0.44;86.74;100931.40;1791749;79;25740;-58
2024/03/21 00:30:13;;;;;;;76.17;34.97;;;;;;;0.44;87.22;100926.61;1791909;79;27999;-58
2024/03/21 00:32:40;;;;;;;67.85;33.70;;;;;;;0.41;87.04;100933.70;1783692;79;25605;-58
2024/03/21 00:35:07;;;;;;;73.20;35.63;;;;;;;0.36;86.69;100927.75;1788014;78;25686;-58
2024/03/21 00:37:33;;;;;;;65.42;35.15;;;;;;;0.31;86.40;100924.42;1800662;79;25847;-55
2024/03/21 00:39:59;;;;;;;72.80;37.33;;;;;;;0.26;86.30;100922.95;1784602;79;25712;-58
2024/03/21 00:42:26;;;;;;;81.22;36.13;;;;;;;0.23;86.46;100922.06;1782696;79;27133;-58
2024/03/21 00:44:53;;;;;;;72.80;34.27;;;;;;;0.18;86.57;100913.95;1775556;79;25635;-57
2024/03/21 00:47:19;;;;;;;76.20;36.35;;;;;;;0.14;86.76;100910.12;1796859;79;25875;-58
2024/03/21 00:49:45;;;;;;;82.25;37.90;;;;;;;0.12;87.18;100916.99;1801377;79;25598;-54
2024/03/21 00:52:11;;;;;;;70.80;36.13;;;;;;;0.09;87.11;100905.99;1782885;79;25392;-57
2024/03/21 00:54:37;;;;;;;81.05;37.25;;;;;;;0.07;87.16;100903.55;1789228;79;27743;-55
2024/03/21 00:57:04;;;;;;;76.97;35.98;;;;;;;0.06;87.72;100897.92;1789050;79;25784;-55
2024/03/21 00:59:31;;;;;;;80.30;34.27;;;;;;;0.07;87.88;100904.05;1788982;79;25392;-55
2024/03/21 01:01:58;;;;;;;67.35;32.33;;;;;;;0.06;88.05;100903.77;1785113;79;25598;-57
2024/03/21 01:04:24;;;;;;;69.90;33.63;;;;;;;0.06;88.27;100897.13;1792513;79;25445;-58
2024/03/21 01:06:51;;;;;;;66.42;32.98;;;;;;;0.08;89.15;100899.03;1792965;79;27327;-57
2024/03/21 01:09:19;;;;;;;73.15;33.70;;;;;;;0.10;89.05;100903.61;1791534;79;25747;-58
2024/03/21 01:11:45;;;;;;;70.72;32.20;;;;;;;0.11;89.12;100901.25;1782481;79;25669;-57
2024/03/21 01:14:12;;;;;;;68.47;33.08;;;;;;;0.11;89.27;100900.73;1790214;79;25842;-55
2024/03/21 01:16:38;;;;;;;73.70;34.90;;;;;;;0.12;89.61;100903.69;1790263;79;25670;-57
2024/03/21 01:19:04;;;;;;;63.83;31.85;;;;;;;0.15;89.44;100907.73;1785527;79;27396;-58
2024/03/21 01:21:31;;;;;;;67.45;33.23;;;;;;;0.15;89.43;100906.41;1784477;79;25870;-55
2024/03/21 01:23:58;;;;;;;73.60;33.70;;;;;;;0.16;89.43;100900.06;1793457;79;25825;-57
2024/03/21 01:26:24;;;;;;;70.37;33.95;;;;;;;0.15;89.15;100898.42;1792337;79;25649;-56
2024/03/21 01:28:53;;;;;;;64.92;30.77;;;;;;;0.13;89.00;100895.98;1797414;79;25431;-58
2024/03/21 01:31:21;;;;;;;66.33;32.40;;;;;;;0.10;89.28;100890.30;1804107;79;27478;-58
2024/03/21 01:33:49;;;;;;;76.28;34.48;;;;;;;0.11;89.37;100891.41;1793861;79;25366;-54
2024/03/21 01:36:17;;;;;;;70.05;33.42;;;;;;;0.10;89.32;100894.30;1776597;79;25522;-58
2024/03/21 01:38:44;;;;;;;63.65;31.93;;;;;;;0.09;89.40;100888.70;1798932;79;25845;-58
2024/03/21 01:41:11;;;;;;;65.87;31.65;;;;;;;0.06;89.16;100885.95;1777924;79;25680;-57
2024/03/21 01:43:41;;;;;;;68.30;31.80;;;;;;;0.03;89.38;100883.73;1786314;79;27402;-58
2024/03/21 01:46:17;;;;;;;66.67;31.97;;;;;;;0.03;89.77;100874.43;1786765;79;25843;-58
2024/03/21 01:48:50;;;;;;;69.53;30.82;;;;;;;0.02;89.73;100875.98;1790534;79;25467;-58
2024/03/21 01:51:21;;;;;;;65.20;31.77;;;;;;;0.01;90.21;100872.52;1789413;79;25605;-57
2024/03/21 01:53:52;;;;;;;70.22;32.58;;;;;;;0.05;90.78;100874.20;1796467;79;25376;-57
2024/03/21 01:56:19;;;;;;;67.70;33.02;;;;;;;0.09;91.97;100871.41;1801136;79;28041;-59
2024/03/21 01:58:46;;;;;;;64.87;31.37;;;;;;;0.11;91.61;100868.00;1782689;79;25600;-55
2024/03/21 02:01:27;;;;;;;65.08;32.50;;;;;;;0.10;91.39;100864.53;1797835;79;25391;-56
2024/03/21 02:03:59;;;;;;;65.55;30.72;;;;;;;0.12;91.12;100873.59;1792358;79;25704;-58
2024/03/21 02:06:28;;;;;;;66.53;30.92;;;;;;;0.12;91.77;100872.27;1785526;79;25540;-59
2024/03/21 02:08:57;;;;;;;66.70;31.05;;;;;;;0.14;91.83;100864.89;1776684;79;28041;-57
2024/03/21 02:11:23;;;;;;;69.00;31.62;;;;;;;0.14;91.38;100861.70;1782818;79;25538;-59
2024/03/21 02:13:54;;;;;;;68.02;32.25;;;;;;;0.16;91.87;100862.81;1782827;79;25603;-59
2024/03/21 02:16:22;;;;;;;68.80;34.18;;;;;;;0.20;92.05;100861.84;1776527;79;25685;-59
2024/03/21 02:18:53;;;;;;;69.17;31.52;;;;;;;0.19;91.86;100855.72;1776593;79;25447;-59
2024/03/21 02:24:05;;;;;;;66.07;32.23;;;;;;;0.19;91.80;100850.39;1776841;79;25825;-59
2024/03/21 02:26:32;;;;;;;63.87;32.23;;;;;;;0.16;91.26;100857.49;1797687;79;25375;-59
2024/03/21 02:28:58;;;;;;;66.33;31.87;;;;;;;0.18;91.65;100854.08;1776537;78;27806;-59
2024/03/21 02:31:24;;;;;;;70.28;32.95;;;;;;;0.18;91.66;100858.07;1797584;79;25727;-58
2024/03/21 02:33:51;;;;;;;64.35;30.50;;;;;;;0.15;91.80;100856.69;1776505;79;27324;-59
2024/03/21 02:36:17;;;;;;;69.12;31.87;;;;;;;0.15;91.66;100851.87;1782596;79;26032;-56
2024/03/21 02:38:45;;;;;;;64.90;31.15;;;;;;;0.15;91.77;100855.86;1776530;80;25442;-58
2024/03/21 02:41:11;;;;;;;62.60;31.62;;;;;;;0.14;91.72;100849.73;1783684;79;25799;-58
2024/03/21 02:43:38;;;;;;;64.65;31.93;;;;;;;0.11;91.95;100844.86;1800096;79;25448;-59
2024/03/21 02:46:04;;;;;;;67.40;31.52;;;;;;;0.12;92.18;100843.00;1785915;79;27381;-57
2024/03/21 02:48:33;;;;;;;76.82;32.88;;;;;;;0.12;91.92;100850.48;1782640;78;25492;-57
2024/03/21 02:51:00;;;;;;;68.52;33.10;;;;;;;0.10;92.08;100851.23;1802627;79;25448;-57
2024/03/21 02:53:26;;;;;;;68.00;34.95;;;;;;;0.11;92.08;100848.05;1802447;78;25673;-54
2024/03/21 02:55:52;;;;;;;66.62;31.52;;;;;;;0.12;92.40;100853.64;1796966;79;25589;-56
2024/03/21 02:58:18;;;;;;;76.05;34.50;;;;;;;0.15;92.66;100852.70;1795058;79;27365;-56
2024/03/21 03:00:45;;;;;;;67.20;32.42;;;;;;;0.19;92.94;100850.39;1782608;79;25485;-54
2024/03/21 03:03:12;;;;;;;67.08;32.42;;;;;;;0.21;92.99;100852.83;1776918;79;25421;-57
2024/03/21 03:05:41;;;;;;;69.17;33.85;;;;;;;0.23;92.93;100853.41;1784353;78;25604;-58
2024/03/21 03:08:08;;;;;;;70.90;33.02;;;;;;;0.24;93.06;100848.36;1794488;79;25828;-54
2024/03/21 03:10:36;;;;;;;65.78;31.97;;;;;;;0.25;93.05;100852.13;1792737;79;27325;-55
2024/03/21 03:13:04;;;;;;;73.47;34.10;;;;;;;0.25;92.47;100847.34;1793674;79;25386;-57
2024/03/21 03:15:31;;;;;;;74.27;33.50;;;;;;;0.25;92.79;100852.66;1784787;79;25787;-54
2024/03/21 03:17:57;;;;;;;69.75;33.55;;;;;;;0.23;92.62;100846.23;1776489;79;25615;-58
2024/03/21 03:20:23;;;;;;;68.02;33.55;;;;;;;0.25;92.63;100852.66;1782794;79;25448;-54
2024/03/21 03:22:49;;;;;;;73.35;32.93;;;;;;;0.24;92.55;100851.02;1785346;79;27996;-56
2024/03/21 03:25:15;;;;;;;67.80;31.90;;;;;;;0.23;92.38;100851.55;1791157;79;25859;-57
2024/03/21 03:27:43;;;;;;;66.45;31.70;;;;;;;0.22;92.26;100849.12;1776705;79;25408;-57
2024/03/21 03:30:11;;;;;;;73.10;34.67;;;;;;;0.21;92.31;100851.50;1788134;79;25706;-57
2024/03/21 03:32:47;;;;;;;67.50;32.60;;;;;;;0.20;92.37;100849.87;1792397;79;25750;-57
2024/03/21 03:37:52;;;;;;;64.90;32.65;;;;;;;0.18;92.36;100844.77;1778529;79;25701;-57
2024/03/21 03:40:18;;;;;;;67.85;32.33;;;;;;;0.16;92.18;100850.31;1787247;79;25645;-58
2024/03/21 03:42:45;;;;;;;63.08;30.97;;;;;;;0.15;92.50;100846.05;1783180;79;25846;-59
2024/03/21 03:45:11;;;;;;;70.30;33.95;;;;;;;0.15;92.53;100845.22;1776572;80;25641;-59
2024/03/21 03:47:37;;;;;;;79.30;34.58;;;;;;;0.14;92.69;100849.73;1785340;79;27288;-58
2024/03/21 03:50:04;;;;;;;71.05;33.48;;;;;;;0.15;92.72;100850.04;1785255;79;25428;-59
2024/03/21 03:52:30;;;;;;;73.40;32.60;;;;;;;0.16;92.85;100848.98;1795375;79;25812;-60
2024/03/21 03:54:56;;;;;;;67.60;32.80;;;;;;;0.15;92.88;100841.22;1791584;79;25659;-59
2024/03/21 03:57:25;;;;;;;61.73;30.95;;;;;;;0.15;92.56;100839.89;1780884;79;25402;-60
2024/03/21 03:59:51;;;;;;;67.97;33.20;;;;;;;0.11;92.37;100842.20;1782672;79;27255;-60
2024/03/21 04:02:17;;;;;;;67.10;31.30;;;;;;;0.10;92.33;100837.10;1782706;79;25814;-59
2024/03/21 04:04:44;;;;;;;67.20;33.13;;;;;;;0.06;91.96;100836.74;1782786;79;25572;-60
2024/03/21 04:07:10;;;;;;;66.40;32.85;;;;;;;0.03;92.36;100837.19;1797092;79;25607;-59
2024/03/21 04:09:36;;;;;;;62.85;32.42;;;;;;;0.01;92.27;100843.26;1794537;79;25579;-57
2024/03/21 04:12:03;;;;;;;67.72;33.58;;;;;;;-0.02;92.36;100847.20;1797138;79;27304;-56
2024/03/21 04:14:29;;;;;;;67.58;32.63;;;;;;;-0.02;92.91;100848.52;1782752;79;25481;-57
2024/03/21 04:16:56;;;;;;;70.20;33.33;;;;;;;-0.03;92.91;100842.90;1791651;79;25532;-56
2024/03/21 04:19:22;;;;;;;65.30;31.48;;;;;;;-0.03;92.68;100850.87;1776644;79;25725;-56
2024/03/21 04:21:48;;;;;;;66.82;33.75;;;;;;;-0.07;92.63;100847.06;1790160;79;25448;-55
2024/03/21 04:24:16;;;;;;;64.65;32.90;;;;;;;-0.07;92.59;100849.72;1789950;79;27920;-57
2024/03/21 04:26:43;;;;;;;66.97;33.88;;;;;;;-0.08;93.01;100848.61;1800637;79;25582;-59
2024/03/21 04:29:10;;;;;;;68.37;32.80;;;;;;;-0.09;93.12;100851.77;1793938;78;25698;-58
2024/03/21 04:31:36;;;;;;;70.28;34.27;;;;;;;-0.09;92.96;100848.30;1790130;79;25605;-57
2024/03/21 04:34:02;;;;;;;74.15;34.90;;;;;;;-0.12;93.02;100855.39;1794434;79;25546;-58
2024/03/21 04:36:28;;;;;;;70.17;33.85;;;;;;;-0.14;92.98;100852.95;1794952;79;27347;-56
2024/03/21 04:38:54;;;;;;;71.57;34.40;;;;;;;-0.15;92.81;100856.66;1787799;79;25808;-57
2024/03/21 04:41:21;;;;;;;73.67;35.68;;;;;;;-0.16;93.15;100849.71;1794572;79;25579;-57
2024/03/21 04:43:47;;;;;;;67.60;32.85;;;;;;;-0.15;93.27;100854.50;1776663;79;27806;-58
2024/03/21 04:46:13;;;;;;;69.67;33.67;;;;;;;-0.15;93.39;100859.33;1795545;79;25870;-57
2024/03/21 04:48:39;;;;;;;73.83;34.90;;;;;;;-0.13;93.52;100857.25;1788713;79;27844;-59
2024/03/21 04:51:07;;;;;;;75.32;35.85;;;;;;;-0.14;93.58;100858.27;1802915;79;25435;-59
2024/03/21 04:53:34;;;;;;;71.77;36.45;;;;;;;-0.13;93.68;100851.93;1794306;79;25551;-59
2024/03/21 04:56:06;;;;;;;72.22;34.05;;;;;;;-0.11;93.82;100857.83;1791582;79;25795;-55
2024/03/21 04:58:33;;;;;;;70.55;33.55;;;;;;;-0.09;93.70;100861.59;1781101;79;25428;-56
2024/03/21 05:00:59;;;;;;;76.67;34.50;;;;;;;-0.09;93.65;100859.74;1778252;78;27918;-60
2024/03/21 05:03:25;;;;;;;72.37;35.38;;;;;;;-0.10;93.49;100863.45;1800257;79;25858;-56
2024/03/21 05:05:52;;;;;;;78.33;36.80;;;;;;;-0.10;93.65;100863.95;1794324;79;25720;-59
2024/03/21 05:08:18;;;;;;;72.22;34.10;;;;;;;-0.11;93.47;100863.15;1794568;79;25625;-60
2024/03/21 05:10:44;;;;;;;72.32;35.23;;;;;;;-0.10;93.67;100863.45;1789055;79;25534;-59
2024/03/21 05:13:10;;;;;;;66.53;34.00;;;;;;;-0.08;93.72;100861.91;1802129;79;27322;-60
2024/03/21 05:15:36;;;;;;;71.02;34.85;;;;;;;-0.08;94.08;100864.56;1786040;79;25688;-59
2024/03/21 05:18:03;;;;;;;69.15;35.15;;;;;;;-0.08;93.75;100869.88;1794388;79;25483;-58
2024/03/21 05:20:29;;;;;;;72.82;36.70;;;;;;;-0.08;93.60;100867.22;1781289;78;25674;-57
2024/03/21 05:22:56;;;;;;;78.62;35.65;;;;;;;-0.05;93.85;100869.41;1793581;79;25752;-59
2024/03/21 05:25:22;;;;;;;70.05;33.20;;;;;;;-0.02;94.30;100880.44;1790508;78;27965;-58
2024/03/21 05:27:48;;;;;;;81.22;36.95;;;;;;;0.02;94.37;100871.49;1787043;79;25984;-58
2024/03/21 05:30:14;;;;;;;70.72;35.68;;;;;;;0.05;94.42;100868.88;1789256;79;26378;-58
2024/03/21 05:32:40;;;;;;;75.37;36.13;;;;;;;0.09;94.78;100865.56;1802282;79;25663;-59
2024/03/21 05:35:07;;;;;;;77.75;37.42;;;;;;;0.12;94.77;100862.45;1777772;79;25391;-59
2024/03/21 05:37:33;;;;;;;77.75;37.13;;;;;;;0.18;94.78;100864.20;1794346;79;27345;-59
2024/03/21 05:39:59;;;;;;;88.50;41.75;;;;;;;0.23;94.84;100868.05;1787136;79;25804;-59
2024/03/21 05:42:26;;;;;;;91.40;42.75;;;;;;;0.28;94.85;100867.66;1801392;78;25420;-57
2024/03/21 05:44:52;;;;;;;92.65;41.13;;;;;;;0.34;95.16;100871.25;1792108;79;25632;-59
2024/03/21 05:47:24;;;;;;;84.85;39.40;;;;;;;0.43;95.46;100873.90;1782914;79;25538;-59
2024/03/21 05:49:51;;;;;;;76.47;39.27;;;;;;;0.53;95.90;100879.48;1782812;79;27483;-60
2024/03/21 05:52:20;;;;;;;85.38;40.35;;;;;;;0.65;96.25;100880.04;1788864;79;25425;-59
2024/03/21 05:54:51;;;;;;;88.20;39.55;;;;;;;0.79;97.12;100878.78;1784028;79;26317;-59
2024/03/21 05:57:18;;;;;;;79.80;40.58;;;;;;;0.93;97.40;100877.51;1790563;79;26175;-58
2024/03/21 05:59:44;;;;;;;85.72;40.90;;;;;;;1.11;98.03;100875.80;1789538;79;25400;-60
2024/03/21 06:02:11;;;;;;;81.67;39.00;;;;;;;1.27;98.00;100879.09;1781555;79;27928;-58
2024/03/21 06:04:38;;;;;;;80.10;39.65;;;;;;;1.43;98.01;100879.42;1792075;79;25798;-58
2024/03/21 06:07:04;;;;;;;95.72;41.92;;;;;;;1.58;98.20;100874.41;1791593;79;25449;-59
2024/03/21 06:09:32;;;;;;;79.03;39.70;;;;;;;1.76;98.04;100880.66;1798416;79;25945;-55
2024/03/21 06:11:58;;;;;;;86.02;37.65;;;;;;;1.91;97.87;100879.64;1793171;78;25847;-58
2024/03/21 06:14:25;;;;;;;81.57;40.10;;;;;;;2.08;97.91;100878.37;1793276;79;27327;-56
2024/03/21 06:16:51;;;;;;;86.15;38.08;;;;;;;2.28;98.22;100879.25;1789748;79;25398;-59
2024/03/21 06:19:17;;;;;;;83.78;37.67;;;;;;;2.47;97.98;100867.03;1778888;79;25564;-59
2024/03/21 06:21:43;;;;;;;84.90;41.00;;;;;;;2.71;99.38;100867.73;1795183;78;26159;-57
2024/03/21 06:24:10;;;;;;;75.15;37.88;;;;;;;2.98;99.04;100874.58;1779635;79;25425;-58
2024/03/21 06:26:36;;;;;;;74.00;37.93;;;;;;;3.23;98.73;100865.30;1788984;78;27247;-58
2024/03/21 06:29:02;;;;;;;75.22;35.33;;;;;;;3.48;97.38;100866.98;1806333;79;25739;-59
2024/03/21 06:31:29;;;;;;;65.78;34.30;;;;;;;3.76;98.01;100870.54;1782749;79;25862;-56
2024/03/21 06:33:55;;;;;;;64.10;34.00;;;;;;;4.05;96.90;100879.70;1782747;79;25567;-57
2024/03/21 06:36:21;;;;;;;67.37;32.80;;;;;;;4.28;96.31;100876.75;1782762;79;25546;-59
2024/03/21 06:38:48;;;;;;;53.48;29.92;;;;;;;4.55;96.56;100881.30;1782860;79;27315;-59
2024/03/21 06:41:15;;;;;;;55.83;29.60;;;;;;;4.76;94.45;100878.80;1776443;80;25744;-60
2024/03/21 06:43:41;;;;;;;56.15;29.85;;;;;;;4.87;93.23;100873.80;1791433;79;25408;-59
2024/03/21 06:46:07;;;;;;;52.85;28.83;;;;;;;5.10;94.49;100882.00;1791916;79;26193;-56
2024/03/21 06:48:33;;;;;;;48.10;25.72;;;;;;;5.41;93.76;100882.19;1775484;79;25662;-61
2024/03/21 06:51:03;;;;;;;52.73;26.52;;;;;;;5.70;92.93;100888.52;1794727;79;27314;-59
2024/03/21 06:53:31;;;;;;;49.60;27.98;;;;;;;5.85;91.88;100895.29;1786860;78;25814;-61
2024/03/21 06:55:57;;;;;;;54.00;30.00;;;;;;;5.90;90.46;100884.57;1784521;79;25637;-61
2024/03/21 06:58:24;;;;;;;45.28;26.00;;;;;;;6.00;90.49;100889.75;1781966;79;27802;-62
2024/03/21 07:00:53;;;;;;;40.03;22.67;;;;;;;6.13;88.77;100886.55;1809451;79;25884;-62
2024/03/21 07:03:19;;;;;;;38.65;21.50;;;;;;;6.16;87.59;100879.30;1789896;79;27314;-66
2024/03/21 07:05:48;;;;;;;38.60;21.57;;;;;;;6.20;88.20;100883.09;1784379;79;25521;-67
2024/03/21 07:08:15;;;;;;;37.23;21.43;;;;;;;6.24;86.58;100883.38;1789285;79;25746;-67
2024/03/21 07:10:41;;;;;;;40.73;23.07;;;;;;;6.23;86.31;100880.40;1794276;79;25736;-67
2024/03/21 07:13:08;;;;;;;36.28;21.85;;;;;;;6.25;86.24;100883.11;1792265;79;25597;-66
2024/03/21 07:15:34;;;;;;;36.23;20.65;;;;;;;6.34;86.28;100891.45;1791731;78;28045;-65
2024/03/21 07:18:00;;;;;;;35.28;20.72;;;;;;;6.42;85.60;100890.11;1800528;79;25799;-64
2024/03/21 07:20:26;;;;;;;37.85;21.70;;;;;;;6.57;85.94;100891.47;1782029;79;25692;-64
2024/03/21 07:22:53;;;;;;;37.83;22.32;;;;;;;6.66;85.01;100893.92;1789612;79;26229;-64
2024/03/21 07:25:20;;;;;;;35.70;21.23;;;;;;;6.68;84.31;100893.11;1794641;79;25397;-65
2024/03/21 07:27:47;;;;;;;38.08;20.52;;;;;;;6.65;83.21;100892.84;1791497;79;27334;-65
2024/03/21 07:30:16;;;;;;;39.98;22.17;;;;;;;6.67;83.07;100894.17;1800984;79;25440;-65
2024/03/21 07:32:43;;;;;;;40.00;22.95;;;;;;;6.73;82.56;100884.25;1807062;79;25423;-64
2024/03/21 07:35:09;;;;;;;37.17;22.87;;;;;;;6.82;83.29;100893.92;1786949;78;25497;-65
2024/03/21 07:37:35;;;;;;;37.38;21.05;;;;;;;7.01;83.16;100886.11;1782993;78;25429;-65
2024/03/21 07:40:04;;;;;;;35.17;20.85;;;;;;;7.25;83.27;100882.31;1793608;79;27324;-64
2024/03/21 07:42:30;;;;;;;33.25;20.23;;;;;;;7.39;82.44;100877.99;1787856;79;25475;-66
2024/03/21 07:44:56;;;;;;;34.38;20.75;;;;;;;7.53;81.59;100884.16;1790147;78;25414;-64
2024/03/21 07:47:22;;;;;;;36.58;20.40;;;;;;;7.73;81.98;100876.52;1781398;79;25638;-58
2024/03/21 07:49:49;;;;;;;38.02;21.30;;;;;;;8.04;81.32;100877.21;1800748;78;25556;-58
2024/03/21 07:52:15;;;;;;;31.07;18.85;;;;;;;8.37;80.00;100867.56;1804624;79;27332;-57
2024/03/21 07:54:41;;;;;;;29.77;17.67;;;;;;;8.60;78.29;100868.80;1791862;79;25738;-58
2024/03/21 07:57:08;;;;;;;28.42;17.35;;;;;;;8.96;77.15;100864.45;1782929;79;25424;-58
2024/03/21 07:59:34;;;;;;;28.42;17.52;;;;;;;9.41;75.59;100878.31;1798778;79;26341;-59
2024/03/21 08:02:01;;;;;;;28.85;17.35;;;;;;;9.95;73.26;100875.78;1788486;79;25775;-57
2024/03/21 08:04:27;;;;;;;25.97;16.17;;;;;;;10.39;71.64;100870.61;1778714;79;27276;-58
2024/03/21 08:06:53;;;;;;;24.95;15.68;;;;;;;10.90;71.67;100877.12;1794374;79;25606;-58
2024/03/21 08:09:20;;;;;;;24.75;15.95;;;;;;;11.32;69.64;100872.59;1785597;79;25541;-59
2024/03/21 08:11:46;;;;;;;25.80;15.58;;;;;;;11.77;66.26;100871.42;1788265;79;25807;-57
2024/03/21 08:14:12;;;;;;;26.45;15.63;;;;;;;12.11;67.21;100866.12;1797657;79;25512;-58
2024/03/21 08:16:39;;;;;;;29.42;19.37;;;;;;;12.61;67.78;100865.81;1800640;79;27971;-57
2024/03/21 08:19:06;;;;;;;34.23;23.57;;;;;;;13.02;67.87;100861.50;1780686;79;25510;-58
2024/03/21 08:21:35;;;;;;;27.02;16.50;;;;;;;13.29;66.89;100857.00;1793497;79;25692;-64
2024/03/21 08:24:02;;;;;;;26.23;16.20;;;;;;;13.40;64.80;100857.02;1785638;79;32697;-64
2024/03/21 08:26:28;;;;;;;23.65;15.35;;;;;;;13.54;61.23;100858.25;1782738;79;25530;-63
2024/03/21 08:28:54;;;;;;;25.50;15.58;;;;;;;13.48;62.55;100858.14;1797934;79;27851;-65
2024/03/21 08:31:21;;;;;;;27.73;15.65;;;;;;;13.63;61.28;100849.55;1794138;79;25551;-65
2024/03/21 08:33:47;;;;;;;27.82;16.32;;;;;;;13.63;60.92;100840.61;1785548;79;25379;-64
2024/03/21 08:36:14;;;;;;;24.57;15.83;;;;;;;13.50;59.16;100845.06;1785569;79;25589;-64
2024/03/21 08:38:41;;;;;;;23.20;15.70;;;;;;;13.44;58.73;100836.80;1794507;79;25444;-64
2024/03/21 08:41:09;;;;;;;22.82;14.13;;;;;;;13.60;57.00;100843.95;1794521;79;27685;-64
2024/03/21 08:43:35;;;;;;;23.40;15.28;;;;;;;13.56;57.64;100842.99;1776609;79;25383;-64
2024/03/21 08:46:02;;;;;;;22.87;14.65;;;;;;;13.50;56.62;100836.09;1782803;79;25811;-64
2024/03/21 08:48:28;;;;;;;20.97;14.35;;;;;;;13.66;56.68;100836.47;1782975;79;26282;-64
2024/03/21 08:50:55;;;;;;;23.83;14.78;;;;;;;13.82;55.44;100831.62;1776685;78;25686;-64
2024/03/21 08:53:21;;;;;;;25.50;15.80;;;;;;;13.83;56.24;100825.62;1788464;79;27328;-65
2024/03/21 08:55:48;;;;;;;23.40;14.93;;;;;;;14.04;56.49;100828.52;1789693;79;25865;-64
2024/03/21 08:58:14;;;;;;;21.23;13.48;;;;;;;14.36;57.16;100828.59;1788483;79;25593;-64
2024/03/21 09:00:41;;;;;;;18.70;12.78;;;;;;;14.71;53.43;100829.13;1797128;79;26168;-64
2024/03/21 09:03:11;;;;;;;19.80;12.18;;;;;;;14.69;50.92;100840.91;1788775;78;25604;-63
2024/03/21 09:05:37;;;;;;;17.20;12.15;;;;;;;14.54;51.15;100835.38;1799128;79;27323;-65
2024/03/21 09:08:04;;;;;;;19.55;12.95;;;;;;;14.77;50.34;100834.66;1783180;78;25685;-66
2024/03/21 09:10:30;;;;;;;19.67;12.63;;;;;;;14.99;51.19;100837.72;1792094;79;25556;-65
2024/03/21 09:12:56;;;;;;;20.15;12.60;;;;;;;15.68;52.54;100822.97;1789424;79;25794;-65
2024/03/21 09:15:23;;;;;;;20.85;11.88;;;;;;;16.48;51.13;100824.54;1794518;79;25393;-66
2024/03/21 09:17:49;;;;;;;17.15;11.53;;;;;;;16.74;46.45;100820.98;1791702;79;27645;-66
2024/03/21 09:20:15;;;;;;;14.85;11.20;;;;;;;16.84;46.88;100832.61;1789750;79;25723;-65
2024/03/21 09:22:42;;;;;;;22.48;12.25;;;;;;;16.67;47.40;100820.75;1806909;79;25781;-65
2024/03/21 09:25:09;;;;;;;20.90;11.45;;;;;;;16.44;45.16;100820.32;1797955;78;25605;-64
2024/03/21 09:27:36;;;;;;;19.05;11.25;;;;;;;16.23;47.37;100821.15;1779763;79;25516;-64
2024/03/21 09:30:03;;;;;;;13.60;9.75;;;;;;;16.29;47.76;100819.58;1781041;79;27888;-64
2024/03/21 09:32:30;;;;;;;11.83;8.25;;;;;;;16.05;45.04;100823.20;1801386;79;25718;-65
2024/03/21 09:34:56;;;;;;;15.13;9.43;;;;;;;15.58;44.20;100818.45;1807097;79;25373;-66
2024/03/21 09:37:23;;;;;;;17.65;9.53;;;;;;;15.29;45.57;100831.76;1776862;79;25655;-64
2024/03/21 09:39:50;;;;;;;17.80;9.83;;;;;;;15.15;45.33;100828.44;1783900;78;25427;-65
2024/03/21 09:42:21;;;;;;;13.18;9.50;;;;;;;15.10;43.97;100828.08;1787079;79;27875;-61
2024/03/21 09:44:56;;;;;;;21.00;12.68;;;;;;;14.95;43.72;100834.05;1780612;79;25608;-54
2024/03/21 09:47:27;;;;;;;16.07;10.13;;;;;;;14.85;45.84;100827.02;1802554;79;25443;-60
2024/03/21 09:49:54;;;;;;;17.15;9.50;;;;;;;15.13;46.51;100820.59;1791732;79;25730;-62
2024/03/21 09:52:21;;;;;;;16.60;10.90;;;;;;;15.44;47.86;100817.33;1754914;79;25498;-62
2024/03/21 09:54:48;;;;;;;16.80;11.70;;;;;;;15.57;45.63;100813.56;1791870;78;28404;-62
2024/03/21 09:57:15;;;;;;;15.30;10.35;;;;;;;15.37;43.98;100817.84;1763039;80;25669;-64
2024/03/21 09:59:42;;;;;;;18.85;11.88;;;;;;;15.22;45.05;100811.04;1785155;78;25998;-71
2024/03/21 10:02:12;;;;;;;16.23;10.63;;;;;;;15.09;43.54;100820.22;1790796;79;25681;-71
2024/03/21 10:04:47;;;;;;;18.87;11.20;;;;;;;14.97;45.75;100808.65;1779451;79;25512;-71
2024/03/21 10:07:21;;;;;;;19.02;11.12;;;;;;;15.10;45.24;100806.82;1781565;79;28038;-70
2024/03/21 10:09:56;;;;;;;19.60;10.82;;;;;;;15.14;43.90;100809.14;1789013;79;25837;-72
2024/03/21 10:12:25;;;;;;;15.43;9.75;;;;;;;15.03;44.17;100796.43;1791863;79;25595;-76
2024/03/21 10:14:56;;;;;;;;;;;;;;;15.01;42.71;100800.62;1794014;79;25771;-71
2024/03/21 10:17:25;;;;;;;19.57;12.68;;;;;;;14.79;43.41;100793.48;1787973;79;25692;-70
2024/03/21 10:19:54;;;;;;;23.40;13.17;;;;;;;14.63;42.73;100796.73;1788043;79;27296;-70
2024/03/21 10:22:23;;;;;;;17.80;12.28;;;;;;;14.43;44.44;100793.30;1804301;78;25842;-74
2024/03/21 10:24:53;;;;;;;17.77;11.50;;;;;;;14.30;43.12;100791.80;1799839;79;25599;-71
2024/03/21 10:27:21;;;;;;;;;;;;;;;14.26;41.42;100785.95;1794532;79;25941;-71
2024/03/21 10:29:51;;;;;;;18.13;12.03;;;;;;;14.28;44.25;100780.98;1796343;79;25617;-71
2024/03/21 10:32:22;;;;;;;21.02;12.40;;;;;;;14.38;43.58;100788.81;1799565;78;27449;-72
2024/03/21 10:34:51;;;;;;;19.15;12.80;;;;;;;14.38;42.88;100785.52;1800923;79;25757;-70
2024/03/21 10:37:21;;;;;;;17.20;11.93;;;;;;;14.51;42.29;100792.48;1783359;78;34642;-72
2024/03/21 10:39:53;;;;;;;17.27;12.07;;;;;;;14.54;43.33;100787.73;1792566;79;25887;-71
2024/03/21 10:42:34;;;;;;;17.02;12.03;;;;;;;14.60;43.68;100781.61;1798453;79;25466;-71
2024/03/21 10:45:04;;;;;;;20.15;13.75;;;;;;;14.96;42.87;100781.16;1801018;78;27388;-72
2024/03/21 10:47:32;;;;;;;19.23;13.25;;;;;;;15.08;43.03;100766.28;1785391;79;25637;-72
2024/03/21 10:49:58;;;;;;;21.07;14.07;;;;;;;15.18;43.54;100770.56;1785610;79;25832;-73
2024/03/21 10:52:25;;;;;;;17.77;12.85;;;;;;;15.31;43.26;100762.73;1793530;79;25610;-72
2024/03/21 10:54:55;;;;;;;20.55;14.43;;;;;;;15.50;43.54;100766.37;1783678;79;25419;-72
2024/03/21 10:57:28;;;;;;;23.87;15.90;;;;;;;15.74;42.59;100756.75;1782395;79;27306;-72
2024/03/21 11:00:10;;;;;;;20.62;14.65;;;;;;;15.84;42.15;100758.32;1805029;79;25751;-71
2024/03/21 11:02:38;;;;;;;20.97;13.65;;;;;;;15.89;40.01;100741.75;1784717;78;25495;-71
2024/03/21 11:05:14;;;;;;;19.15;12.88;;;;;;;16.03;41.83;100752.38;1789811;79;25544;-70
2024/03/21 11:07:42;;;;;;;21.07;14.78;;;;;;;16.24;43.61;100750.42;1793815;79;25405;-71
2024/03/21 11:10:23;;;;;;;25.30;15.73;;;;;;;16.48;43.17;100744.81;1794008;79;28017;-71
2024/03/21 11:12:50;;;;;;;24.37;15.58;;;;;;;16.48;42.04;100742.63;1800676;79;25740;-72
2024/03/21 11:15:17;;;;;;;22.35;14.43;;;;;;;16.49;42.07;100741.50;1797201;79;26660;-72
2024/03/21 11:17:43;;;;;;;20.32;14.43;;;;;;;16.52;42.30;100741.63;1786994;78;25585;-72
2024/03/21 11:20:13;;;;;;;18.62;13.90;;;;;;;16.27;41.94;100738.60;1802002;79;25500;-72